createdAt,value
2023-10-20T00:01:02.272Z,9.80
2023-10-20T00:03:31.030Z,9.80
2023-10-20T00:06:01.005Z,9.80
2023-10-20T00:08:30.587Z,9.80
2023-10-20T00:11:07.106Z,9.80
2023-10-20T00:13:35.695Z,9.80
2023-10-20T00:16:04.983Z,9.80
2023-10-20T00:18:34.996Z,9.80
2023-10-20T00:21:03.163Z,9.80
2023-10-20T00:23:34.151Z,9.80
2023-10-20T00:26:06.428Z,9.80
2023-10-20T00:28:37.398Z,9.80
2023-10-20T00:31:07.039Z,9.80
2023-10-20T00:33:35.178Z,9.80
2023-10-20T00:36:05.507Z,9.80
2023-10-20T00:38:38.613Z,9.80
2023-10-20T00:41:08.009Z,9.80
2023-10-20T00:43:38.036Z,9.80
2023-10-20T00:46:11.490Z,9.80
2023-10-20T00:48:41.076Z,9.80
2023-10-20T00:51:10.562Z,9.90
2023-10-20T00:53:41.748Z,9.80
2023-10-20T00:56:16.185Z,9.80
2023-10-20T00:58:44.457Z,9.90
2023-10-20T01:01:14.111Z,9.90
2023-10-20T01:03:46.001Z,9.90
2023-10-20T01:06:16.299Z,9.90
2023-10-20T01:08:45.964Z,9.90
2023-10-20T01:11:21.119Z,9.90
2023-10-20T01:13:50.082Z,9.90
2023-10-20T01:16:19.758Z,9.90
2023-10-20T01:18:50.028Z,9.90
2023-10-20T01:21:22.113Z,9.90
2023-10-20T01:23:56.110Z,9.90
2023-10-20T01:26:24.551Z,9.90
2023-10-20T01:28:54.009Z,9.90
2023-10-20T01:31:25.006Z,9.80
2023-10-20T01:33:53.909Z,9.80
2023-10-20T01:36:23.025Z,9.90
2023-10-20T01:38:53.367Z,9.90
2023-10-20T01:41:26.163Z,9.90
2023-10-20T01:43:55.210Z,9.90
2023-10-20T01:46:23.320Z,9.90
2023-10-20T01:48:52.077Z,9.90
2023-10-20T01:51:25.606Z,9.90
2023-10-20T01:53:54.994Z,9.90
2023-10-20T01:56:24.120Z,9.80
2023-10-20T01:58:53.080Z,9.80
2023-10-20T02:01:25.077Z,9.80
2023-10-20T02:03:53.342Z,9.80
2023-10-20T02:06:21.977Z,9.90
2023-10-20T02:08:51.052Z,9.90
2023-10-20T02:11:20.132Z,9.90
2023-10-20T02:13:49.727Z,9.90
2023-10-20T02:16:24.173Z,9.90
2023-10-20T02:18:52.884Z,9.90
2023-10-20T02:21:30.054Z,9.90
2023-10-20T02:24:02.803Z,9.90
2023-10-20T02:29:23.894Z,9.90
2023-10-20T02:31:54.037Z,9.90
2023-10-20T02:34:24.076Z,9.90
2023-10-20T02:36:54.332Z,9.90
2023-10-20T02:39:23.977Z,9.90
2023-10-20T02:41:52.906Z,9.80
2023-10-20T02:44:21.142Z,9.80
2023-10-20T02:46:50.101Z,9.80
2023-10-20T02:49:24.414Z,9.80
2023-10-20T02:51:52.590Z,9.80
2023-10-20T02:54:20.905Z,9.80
2023-10-20T02:56:50.421Z,9.80
2023-10-20T02:59:19.252Z,9.80
2023-10-20T03:01:47.535Z,9.80
2023-10-20T03:04:22.177Z,9.80
2023-10-20T03:06:50.615Z,9.80
2023-10-20T03:09:20.057Z,9.80
2023-10-20T03:11:48.265Z,9.70
2023-10-20T03:14:20.813Z,9.70
2023-10-20T03:16:51.064Z,9.80
2023-10-20T03:19:21.142Z,9.70
2023-10-20T03:21:55.549Z,9.70
2023-10-20T03:24:23.776Z,9.70
2023-10-20T03:26:52.174Z,9.70
2023-10-20T03:29:20.578Z,9.70
2023-10-20T03:31:48.806Z,9.70
2023-10-20T03:34:22.456Z,9.70
2023-10-20T03:36:53.276Z,9.70
2023-10-20T03:39:23.075Z,9.70
2023-10-20T03:41:52.059Z,9.70
2023-10-20T03:44:22.850Z,9.70
2023-10-20T03:46:58.253Z,9.70
2023-10-20T03:49:29.717Z,9.70
2023-10-20T03:52:04.131Z,9.60
2023-10-20T03:54:35.065Z,9.60
2023-10-20T03:57:10.166Z,9.60
2023-10-20T03:59:39.674Z,9.60
2023-10-20T04:02:08.994Z,9.60
2023-10-20T04:04:40.377Z,9.60
2023-10-20T04:07:08.748Z,9.50
2023-10-20T04:09:39.127Z,9.50
2023-10-20T04:12:08.323Z,9.50
2023-10-20T04:14:36.621Z,9.50
2023-10-20T04:17:05.407Z,9.40
2023-10-20T04:19:39.563Z,9.40
2023-10-20T04:22:14.263Z,9.40
2023-10-20T04:24:47.385Z,9.40
2023-10-20T04:27:23.091Z,9.30
2023-10-20T04:30:05.119Z,9.30
2023-10-20T04:32:52.162Z,9.30
2023-10-20T04:35:37.680Z,9.30
2023-10-20T04:38:26.181Z,9.20
2023-10-20T04:41:12.014Z,9.20
2023-10-20T04:43:44.176Z,9.20
2023-10-20T04:46:51.833Z,9.20
2023-10-20T04:49:35.124Z,9.10
2023-10-20T04:52:19.132Z,9.10
2023-10-20T04:54:52.150Z,9.10
2023-10-20T04:57:51.753Z,9.10
2023-10-20T05:00:41.434Z,9.10
2023-10-20T05:03:24.115Z,9.10
2023-10-20T05:05:59.684Z,9.10
2023-10-20T05:08:28.648Z,9.00
2023-10-20T05:10:58.430Z,9.00
2023-10-20T05:13:27.225Z,9.00
2023-10-20T05:15:55.496Z,9.00
2023-10-20T05:18:23.793Z,9.00
2023-10-20T05:20:51.977Z,9.00
2023-10-20T05:23:22.140Z,9.00
2023-10-20T05:25:53.713Z,9.00
2023-10-20T05:28:25.074Z,9.00
2023-10-20T05:30:53.262Z,9.00
2023-10-20T05:33:21.648Z,9.00
2023-10-20T05:35:50.359Z,9.00
2023-10-20T05:38:18.661Z,9.00
2023-10-20T05:40:57.344Z,9.00
2023-10-20T05:43:27.404Z,8.90
2023-10-20T05:45:56.140Z,8.90
2023-10-20T05:48:24.356Z,8.90
2023-10-20T05:50:59.223Z,8.90
2023-10-20T05:53:31.357Z,8.90
2023-10-20T05:56:00.006Z,8.90
2023-10-20T05:58:31.105Z,8.90
2023-10-20T06:01:06.232Z,8.90
2023-10-20T06:03:36.184Z,8.90
2023-10-20T06:06:05.531Z,8.90
2023-10-20T06:08:33.762Z,8.90
2023-10-20T06:11:07.996Z,8.90
2023-10-20T06:13:40.656Z,8.90
2023-10-20T06:16:12.356Z,8.80
2023-10-20T06:18:45.545Z,8.90
2023-10-20T06:21:15.772Z,8.90
2023-10-20T06:23:44.104Z,8.80
2023-10-20T06:26:13.775Z,8.80
2023-10-20T06:28:48.796Z,8.80
2023-10-20T06:31:44.436Z,8.80
2023-10-20T06:34:24.155Z,8.90
2023-10-20T06:37:00.481Z,8.90
2023-10-20T06:39:28.927Z,8.90
2023-10-20T06:42:01.375Z,8.90
2023-10-20T06:44:32.142Z,8.90
2023-10-20T06:49:53.924Z,8.90
2023-10-20T06:52:22.041Z,8.90
2023-10-20T06:55:15.987Z,8.90
2023-10-20T06:57:40.281Z,8.90
2023-10-20T07:00:21.624Z,9.00
2023-10-20T07:02:49.930Z,9.00
2023-10-20T07:05:19.711Z,9.00
2023-10-20T07:07:48.133Z,9.00
2023-10-20T07:10:19.083Z,9.00
2023-10-20T07:12:47.349Z,9.00
2023-10-20T07:15:18.696Z,9.00
2023-10-20T07:17:46.897Z,9.10
2023-10-20T07:20:15.139Z,9.10
2023-10-20T07:22:44.232Z,9.10
2023-10-20T07:25:15.184Z,9.10
2023-10-20T07:27:44.299Z,9.10
2023-10-20T07:30:14.194Z,9.10
2023-10-20T07:32:44.256Z,9.10
2023-10-20T07:35:14.138Z,9.10
2023-10-20T07:37:45.412Z,9.10
2023-10-20T07:40:15.206Z,9.20
2023-10-20T07:42:49.250Z,9.10
2023-10-20T07:45:20.276Z,9.20
2023-10-20T07:47:50.141Z,9.20
2023-10-20T07:50:20.656Z,9.20
2023-10-20T07:52:49.079Z,9.20
2023-10-20T07:55:21.470Z,9.20
2023-10-20T07:57:49.643Z,9.20
2023-10-20T08:00:19.944Z,9.20
2023-10-20T08:02:53.985Z,9.20
2023-10-20T08:05:27.079Z,9.20
2023-10-20T08:07:56.182Z,9.20
2023-10-20T08:10:24.419Z,9.20
2023-10-20T08:12:54.528Z,9.20
2023-10-20T08:15:29.021Z,9.20
2023-10-20T08:18:02.167Z,9.20
2023-10-20T08:20:34.263Z,9.20
2023-10-20T08:23:02.702Z,9.20
2023-10-20T08:25:31.038Z,9.30
2023-10-20T08:27:59.872Z,9.30
2023-10-20T08:30:31.199Z,9.30
2023-10-20T08:33:05.144Z,9.30
2023-10-20T08:35:33.699Z,9.30
2023-10-20T08:38:01.868Z,9.30
2023-10-20T08:40:41.882Z,9.30
2023-10-20T08:43:19.797Z,9.30
2023-10-20T08:45:49.216Z,9.20
2023-10-20T08:48:18.971Z,9.20
2023-10-20T08:50:50.994Z,9.20
2023-10-20T08:53:22.991Z,9.30
2023-10-20T08:55:51.849Z,9.20
2023-10-20T08:58:20.130Z,9.30
2023-10-20T09:00:57.937Z,9.30
2023-10-20T09:03:30.996Z,9.30
2023-10-20T09:06:06.667Z,9.30
2023-10-20T09:08:41.171Z,9.30
2023-10-20T09:11:10.996Z,9.30
2023-10-20T09:13:41.314Z,9.30
2023-10-20T09:16:12.178Z,9.40
2023-10-20T09:18:48.112Z,9.30
2023-10-20T09:21:17.319Z,9.30
2023-10-20T09:24:03.591Z,9.30
2023-10-20T09:26:36.062Z,9.40
2023-10-20T09:29:09.248Z,9.40
2023-10-20T09:31:42.588Z,9.40
2023-10-20T09:34:12.878Z,9.40
2023-10-20T09:36:46.208Z,9.40
2023-10-20T09:39:21.071Z,9.40
2023-10-20T09:41:53.044Z,9.40
2023-10-20T09:44:28.309Z,9.50
2023-10-20T09:46:58.760Z,9.50
2023-10-20T09:49:32.301Z,9.50
2023-10-20T09:52:00.569Z,9.50
2023-10-20T09:54:31.748Z,9.50
2023-10-20T09:57:03.284Z,9.50
2023-10-20T09:59:35.651Z,9.50
2023-10-20T10:02:04.152Z,9.50
2023-10-20T10:04:39.011Z,9.50
2023-10-20T10:07:09.617Z,9.50
2023-10-20T10:09:39.088Z,9.50
2023-10-20T10:12:12.427Z,9.50
2023-10-20T10:14:40.825Z,9.50
2023-10-20T10:17:12.266Z,9.50
2023-10-20T10:19:52.163Z,9.50
2023-10-20T10:22:28.285Z,9.50
2023-10-20T10:24:57.586Z,9.50
2023-10-20T10:27:29.273Z,9.50
2023-10-20T10:30:02.540Z,9.40
2023-10-20T10:32:36.290Z,9.40
2023-10-20T10:35:08.844Z,9.40
2023-10-20T10:37:39.227Z,9.40
2023-10-20T10:40:10.536Z,9.40
2023-10-20T10:42:44.601Z,9.40
2023-10-20T10:45:22.765Z,9.40
2023-10-20T10:48:17.845Z,9.40
2023-10-20T10:50:49.127Z,9.40
2023-10-20T10:53:18.247Z,9.40
2023-10-20T10:55:47.172Z,9.40
2023-10-20T10:58:16.832Z,9.40
2023-10-20T11:00:47.378Z,9.40
2023-10-20T11:03:21.372Z,9.40
2023-10-20T11:05:53.492Z,9.40
2023-10-20T11:08:21.866Z,9.40
2023-10-20T11:10:52.090Z,9.40
2023-10-20T11:13:22.221Z,9.40
2023-10-20T11:15:52.375Z,9.40
2023-10-20T11:18:21.726Z,9.40
2023-10-20T11:20:57.494Z,9.40
2023-10-20T11:23:31.326Z,9.40
2023-10-20T11:26:03.145Z,9.40
2023-10-20T11:28:31.937Z,9.40
2023-10-20T11:31:00.636Z,9.40
2023-10-20T11:33:29.200Z,9.40
2023-10-20T11:36:03.485Z,9.40
2023-10-20T11:38:34.476Z,9.40
2023-10-20T11:41:02.949Z,9.40
2023-10-20T11:43:32.473Z,9.40
2023-10-20T11:46:00.767Z,9.30
2023-10-20T11:48:29.129Z,9.40
2023-10-20T11:50:58.847Z,9.30
2023-10-20T11:53:27.017Z,9.30
2023-10-20T11:55:55.958Z,9.30
2023-10-20T11:58:25.131Z,9.30
2023-10-20T12:00:53.324Z,9.30
2023-10-20T12:03:21.840Z,9.30
2023-10-20T12:05:50.128Z,9.30
2023-10-20T12:08:19.995Z,9.30
2023-10-20T12:10:51.343Z,9.20
2023-10-20T12:13:19.521Z,9.20
2023-10-20T12:15:49.344Z,9.20
2023-10-20T12:18:17.686Z,9.20
2023-10-20T12:20:51.531Z,9.20
2023-10-20T12:23:21.238Z,9.10
2023-10-20T12:25:49.558Z,9.10
2023-10-20T12:28:18.344Z,9.10
2023-10-20T12:30:47.462Z,9.10
2023-10-20T12:33:19.771Z,9.10
2023-10-20T12:35:48.123Z,9.10
2023-10-20T12:38:17.789Z,9.10
2023-10-20T12:40:47.614Z,9.10
2023-10-20T12:43:16.293Z,9.10
2023-10-20T12:45:45.325Z,9.10
2023-10-20T12:48:14.673Z,9.10
2023-10-20T12:50:42.967Z,9.10
2023-10-20T12:53:11.286Z,9.10
2023-10-20T12:55:39.513Z,9.10
2023-10-20T12:58:09.773Z,9.10
2023-10-20T13:00:41.220Z,9.00
2023-10-20T13:03:09.588Z,9.00
2023-10-20T13:05:38.196Z,9.00
2023-10-20T13:08:07.108Z,9.00
2023-10-20T13:10:35.311Z,9.00
2023-10-20T13:13:10.698Z,9.00
2023-10-20T13:15:40.400Z,9.00
2023-10-20T13:18:09.975Z,9.00
2023-10-20T13:20:38.384Z,8.90
2023-10-20T13:23:11.564Z,8.90
2023-10-20T13:25:39.876Z,8.90
2023-10-20T13:28:09.837Z,8.90
2023-10-20T13:30:39.516Z,8.90
2023-10-20T13:33:09.364Z,8.90
2023-10-20T13:35:38.607Z,8.90
2023-10-20T13:38:18.008Z,8.80
2023-10-20T13:40:47.910Z,8.80
2023-10-20T13:43:17.456Z,8.80
2023-10-20T13:45:45.658Z,8.80
2023-10-20T13:48:13.920Z,8.80
2023-10-20T13:50:42.077Z,8.80
2023-10-20T13:53:14.073Z,8.80
2023-10-20T13:55:45.928Z,8.70
2023-10-20T13:58:15.285Z,8.80
2023-10-20T14:00:47.994Z,8.70
2023-10-20T14:03:16.337Z,8.70
2023-10-20T14:05:53.731Z,8.70
2023-10-20T14:08:22.041Z,8.70
2023-10-20T14:10:50.551Z,8.70
2023-10-20T14:13:22.049Z,8.70
2023-10-20T14:15:51.728Z,8.70
2023-10-20T14:18:23.228Z,8.60
2023-10-20T14:20:51.988Z,8.60
2023-10-20T14:23:23.164Z,8.60
2023-10-20T14:25:57.863Z,8.60
2023-10-20T14:28:32.700Z,8.40
2023-10-20T14:31:02.280Z,8.50
2023-10-20T14:33:31.706Z,8.50
2023-10-20T14:36:00.510Z,8.50
2023-10-20T14:38:29.536Z,8.50
2023-10-20T14:41:03.177Z,8.60
2023-10-20T14:43:33.520Z,8.50
2023-10-20T14:46:07.259Z,8.50
2023-10-20T14:48:37.124Z,8.50
2023-10-20T14:51:10.396Z,8.50
2023-10-20T14:53:42.160Z,8.50
2023-10-20T14:56:17.619Z,8.50
2023-10-20T14:58:47.035Z,8.50
2023-10-20T15:01:16.568Z,8.50
2023-10-20T15:03:46.486Z,8.40
2023-10-20T15:06:16.426Z,8.40
2023-10-20T15:08:46.408Z,8.40
2023-10-20T15:11:15.783Z,8.40
2023-10-20T15:13:46.225Z,8.40
2023-10-20T15:16:22.997Z,8.40
2023-10-20T15:18:52.723Z,8.30
2023-10-20T15:21:23.502Z,8.30
2023-10-20T15:23:54.065Z,8.30
2023-10-20T15:26:22.624Z,8.30
2023-10-20T15:28:50.867Z,8.40
2023-10-20T15:31:20.452Z,8.30
2023-10-20T15:33:50.442Z,8.30
2023-10-20T15:36:18.637Z,8.40
2023-10-20T15:38:49.711Z,8.30
2023-10-20T15:41:20.373Z,8.30
2023-10-20T15:43:48.501Z,8.30
2023-10-20T15:46:18.370Z,8.30
2023-10-20T15:48:46.585Z,8.30
2023-10-20T15:51:19.247Z,8.30
2023-10-20T15:53:48.515Z,8.30
2023-10-20T15:56:16.746Z,8.30
2023-10-20T15:58:46.382Z,8.40
2023-10-20T16:01:15.227Z,8.40
2023-10-20T16:03:45.571Z,8.40
2023-10-20T16:06:13.812Z,8.40
2023-10-20T16:08:43.696Z,8.40
2023-10-20T16:11:13.421Z,8.40
2023-10-20T16:13:41.616Z,8.40
2023-10-20T16:16:10.315Z,8.40
2023-10-20T16:18:39.505Z,8.40
2023-10-20T16:21:07.843Z,8.40
2023-10-20T16:23:37.187Z,8.40
2023-10-20T16:26:09.243Z,8.40
2023-10-20T16:28:39.288Z,8.40
2023-10-20T16:31:07.519Z,8.40
2023-10-20T16:33:36.489Z,8.40
2023-10-20T16:36:09.607Z,8.40
2023-10-20T16:38:37.947Z,8.40
2023-10-20T16:41:07.138Z,8.40
2023-10-20T16:43:36.750Z,8.40
2023-10-20T16:46:07.447Z,8.40
2023-10-20T16:48:35.860Z,8.40
2023-10-20T16:51:04.428Z,8.40
2023-10-20T16:53:35.559Z,8.40
2023-10-20T16:56:04.668Z,8.40
2023-10-20T16:58:34.388Z,8.40
2023-10-20T17:01:08.659Z,8.40
2023-10-20T17:03:37.481Z,8.40
2023-10-20T17:06:06.819Z,8.40
2023-10-20T17:08:36.416Z,8.40
2023-10-20T17:11:05.340Z,8.40
2023-10-20T17:13:34.545Z,8.40
2023-10-20T17:16:07.545Z,8.40
2023-10-20T17:18:36.556Z,8.40
2023-10-20T17:21:09.657Z,8.40
2023-10-20T17:23:39.476Z,8.40
2023-10-20T17:26:08.137Z,8.40
2023-10-20T17:28:37.822Z,8.50
2023-10-20T17:31:09.172Z,8.50
2023-10-20T17:33:37.621Z,8.50
2023-10-20T17:36:08.232Z,8.40
2023-10-20T17:38:38.510Z,8.40
2023-10-20T17:41:08.730Z,8.50
2023-10-20T17:43:38.429Z,8.50
2023-10-20T17:46:09.448Z,8.50
2023-10-20T17:48:38.685Z,8.50
2023-10-20T17:51:07.542Z,8.50
2023-10-20T17:53:36.356Z,8.40
2023-10-20T17:56:06.103Z,8.40
2023-10-20T17:58:34.827Z,8.50
2023-10-20T18:01:09.544Z,8.50
2023-10-20T18:03:44.821Z,8.50
2023-10-20T18:06:17.988Z,8.50
2023-10-20T18:08:50.874Z,8.50
2023-10-20T18:11:21.188Z,8.50
2023-10-20T18:13:52.071Z,8.50
2023-10-20T18:16:23.545Z,8.50
2023-10-20T18:18:54.620Z,8.50
2023-10-20T18:21:25.370Z,8.50
2023-10-20T18:23:56.835Z,8.50
2023-10-20T18:26:25.450Z,8.50
2023-10-20T18:28:55.578Z,8.50
2023-10-20T18:31:25.161Z,8.50
2023-10-20T18:33:59.490Z,8.50
2023-10-20T18:36:30.450Z,8.50
2023-10-20T18:38:58.891Z,8.50
2023-10-20T18:41:28.384Z,8.50
2023-10-20T18:44:00.294Z,8.50
2023-10-20T18:46:30.490Z,8.50
2023-10-20T18:49:00.490Z,8.60
2023-10-20T18:51:30.437Z,8.60
2023-10-20T18:53:58.957Z,8.50
2023-10-20T18:56:27.205Z,8.50
2023-10-20T18:58:55.561Z,8.60
2023-10-20T19:01:23.859Z,8.50
2023-10-20T19:03:54.486Z,8.50
2023-10-20T19:06:25.267Z,8.60
2023-10-20T19:08:56.573Z,8.60
2023-10-20T19:11:27.569Z,8.60
2023-10-20T19:13:55.767Z,8.60
2023-10-20T19:16:24.622Z,8.60
2023-10-20T19:18:54.215Z,8.60
2023-10-20T19:21:24.028Z,8.60
2023-10-20T19:23:55.467Z,8.70
2023-10-20T19:26:23.790Z,8.70
2023-10-20T19:28:52.190Z,8.70
2023-10-20T19:31:20.637Z,8.70
2023-10-20T19:33:51.645Z,8.70
2023-10-20T19:36:25.616Z,8.70
2023-10-20T19:38:54.469Z,8.70
2023-10-20T19:41:22.690Z,8.70
2023-10-20T19:43:53.288Z,8.80
2023-10-20T19:46:21.502Z,8.80
2023-10-20T19:48:51.637Z,8.80
2023-10-20T19:51:21.700Z,8.80
2023-10-20T19:53:50.144Z,8.80
2023-10-20T19:56:18.463Z,8.80
2023-10-20T19:58:50.458Z,8.80
2023-10-20T20:01:21.443Z,8.80
2023-10-20T20:03:49.842Z,8.80
2023-10-20T20:06:18.448Z,8.80
2023-10-20T20:08:51.342Z,8.80
2023-10-20T20:11:20.284Z,8.80
2023-10-20T20:13:49.570Z,8.90
2023-10-20T20:16:17.749Z,8.90
2023-10-20T20:18:46.522Z,8.90
2023-10-20T20:21:19.191Z,8.90
2023-10-20T20:23:49.676Z,8.90
2023-10-20T20:26:20.579Z,8.90
2023-10-20T20:28:52.445Z,8.90
2023-10-20T20:31:20.727Z,9.00
2023-10-20T20:33:48.989Z,9.00
2023-10-20T20:36:17.202Z,9.00
2023-10-20T20:38:47.362Z,9.00
2023-10-20T20:41:17.488Z,9.00
2023-10-20T20:43:45.627Z,9.00
2023-10-20T20:46:14.513Z,9.00
2023-10-20T20:48:43.619Z,9.00
2023-10-20T20:51:12.659Z,9.00
2023-10-20T20:53:41.691Z,9.00
2023-10-20T20:56:12.481Z,9.00
2023-10-20T20:58:42.139Z,9.00
2023-10-20T21:01:11.572Z,9.10
2023-10-20T21:03:44.511Z,9.10
2023-10-20T21:06:39.377Z,9.10
2023-10-20T21:09:07.633Z,9.10
2023-10-20T21:11:37.747Z,9.10
2023-10-20T21:14:07.575Z,9.10
2023-10-20T21:16:36.435Z,9.10
2023-10-20T21:19:04.971Z,9.10
2023-10-20T21:21:34.326Z,9.10
2023-10-20T21:24:06.508Z,9.20
2023-10-20T21:26:34.966Z,9.20
2023-10-20T21:29:05.559Z,9.20
2023-10-20T21:31:35.581Z,9.20
2023-10-20T21:34:05.549Z,9.20
2023-10-20T21:36:34.526Z,9.20
2023-10-20T21:39:02.725Z,9.20
2023-10-20T21:41:31.552Z,9.30
2023-10-20T21:44:03.537Z,9.30
2023-10-20T21:46:32.536Z,9.30
2023-10-20T21:49:02.342Z,9.30
2023-10-20T21:51:30.876Z,9.30
2023-10-20T21:53:59.402Z,9.30
2023-10-20T21:56:31.462Z,9.30
2023-10-20T21:58:59.857Z,9.30
2023-10-20T22:01:28.021Z,9.40
2023-10-20T22:03:57.861Z,9.40
2023-10-20T22:06:27.702Z,9.40
2023-10-20T22:08:55.894Z,9.40
2023-10-20T22:11:27.495Z,9.40
2023-10-20T22:13:56.491Z,9.40
2023-10-20T22:16:24.676Z,9.40
2023-10-20T22:18:53.427Z,9.50
2023-10-20T22:21:22.572Z,9.50
2023-10-20T22:23:52.194Z,9.50
2023-10-20T22:26:22.280Z,9.50
2023-10-20T22:28:50.531Z,9.50
2023-10-20T22:31:20.013Z,9.50
2023-10-20T22:33:49.672Z,9.50
2023-10-20T22:36:17.992Z,9.50
2023-10-20T22:38:46.555Z,9.50
2023-10-20T22:41:17.556Z,9.60
2023-10-20T22:43:48.487Z,9.60
2023-10-20T22:46:16.678Z,9.60
2023-10-20T22:48:46.572Z,9.60
2023-10-20T22:51:15.601Z,9.60
2023-10-20T22:53:44.590Z,9.60
2023-10-20T22:56:17.509Z,9.60
2023-10-20T22:58:47.618Z,9.60
2023-10-20T23:01:18.563Z,9.60
2023-10-20T23:03:52.330Z,9.60
2023-10-20T23:06:20.974Z,9.60
2023-10-20T23:08:52.660Z,9.60
2023-10-20T23:11:23.074Z,9.60
2023-10-20T23:14:21.673Z,9.70
2023-10-20T23:16:50.546Z,9.60
2023-10-20T23:19:19.352Z,9.70
2023-10-20T23:21:50.592Z,9.70
2023-10-20T23:24:18.762Z,9.70
2023-10-20T23:26:49.321Z,9.70
2023-10-20T23:29:17.485Z,9.70
2023-10-20T23:31:46.608Z,9.70
2023-10-20T23:34:15.540Z,9.70
2023-10-20T23:36:44.096Z,9.70
2023-10-20T23:39:12.349Z,9.80
2023-10-20T23:41:41.664Z,9.80
2023-10-20T23:44:11.714Z,9.80
2023-10-20T23:46:40.635Z,9.80
2023-10-20T23:49:09.316Z,9.80
2023-10-20T23:51:37.412Z,9.80
2023-10-20T23:54:05.720Z,9.80
2023-10-20T23:56:34.058Z,9.80
2023-10-20T23:59:02.229Z,9.80
